Terminal Aerodrome Forecast
Issued by NWS Charleston, WV

Current Version | Previous Version | Graphics & Text | Print | Product List | Glossary Off
Versions: 1 2 3 4 5 6 7 8 9 10 11 12 13 14 15 16 17 18 19 20 21 22 23 24 25

541
FTUS41 KRLX 250849 AAA
TAFEKN
TAF AMD
KEKN 250849Z 2509/2606 10006KT P6SM BKN025 OVC120
      TEMPO 2509/2510 -RA SCT020 BKN060
     FM251000 10006KT P6SM OVC025
      TEMPO 2510/2514 BKN012
     FM260400 00000KT 5SM BR BKN025=

USA.gov is the U.S. government's official web portal to all federal, state and local government web resources and services.